Time;durP1;ratioP1;P1;durP2;ratioP2;P2;SDS_P1;SDS_P2;PMS_P1;PMS_P2;Temp;Humidity;BMP_temperature;BMP_pressure;BME280_temperature;BME280_humidity;BME280_pressure;Samples;Min_cycle;Max_cycle;Signal;HPM_P1;HPM_P2
2021/06/26 00:00:44;;;;;;;9.33;5.83;;;;;;;;;;3560631;40;20049;-61
2021/06/26 00:03:09;;;;;;;9.35;5.65;;;;;;;;;;3560267;40;20033;-62
2021/06/26 00:05:34;;;;;;;10.93;6.47;;;;;;;;;;3562567;40;20053;-62
2021/06/26 00:07:59;;;;;;;11.90;6.83;;;;;;;;;;3564244;40;20322;-62
2021/06/26 00:10:25;;;;;;;29.20;9.40;;;;;;;;;;3566499;40;20037;-61
2021/06/26 00:12:50;;;;;;;7.43;5.63;;;;;;;;;;3567456;40;20025;-61
2021/06/26 00:15:15;;;;;;;19.98;8.82;;;;;;;;;;3569175;40;20110;-61
2021/06/26 00:17:40;;;;;;;13.07;6.60;;;;;;;;;;3569976;40;20327;-62
2021/06/26 00:20:05;;;;;;;7.50;5.67;;;;;;;;;;3568153;40;20030;-62
2021/06/26 00:22:31;;;;;;;10.33;6.97;;;;;;;;;;3564834;40;20038;-62
2021/06/26 00:24:56;;;;;;;11.20;7.37;;;;;;;;;;3563742;40;20940;-61
2021/06/26 00:27:21;;;;;;;18.80;8.17;;;;;;;;;;3563452;40;20026;-61
2021/06/26 00:29:46;;;;;;;16.60;7.83;;;;;;;;;;3552234;40;20045;-61
2021/06/26 00:32:11;;;;;;;8.17;5.90;;;;;;;;;;3559711;40;20268;-62
2021/06/26 00:34:37;;;;;;;10.73;6.40;;;;;;;;;;3559576;40;20045;-61
2021/06/26 00:37:02;;;;;;;8.80;5.53;;;;;;;;;;3561245;40;20149;-60
2021/06/26 00:39:27;;;;;;;11.27;5.73;;;;;;;;;;3563163;40;20387;-61
2021/06/26 00:41:52;;;;;;;15.33;7.97;;;;;;;;;;3563662;40;20037;-61
2021/06/26 00:44:17;;;;;;;13.63;7.07;;;;;;;;;;3567180;40;20025;-61
2021/06/26 00:46:43;;;;;;;8.80;5.90;;;;;;;;;;3568701;40;20750;-61
2021/06/26 00:49:08;;;;;;;9.27;5.90;;;;;;;;;;3570328;40;20029;-61
2021/06/26 00:51:33;;;;;;;11.70;6.23;;;;;;;;;;3570391;40;20029;-61
2021/06/26 00:53:58;;;;;;;10.53;6.63;;;;;;;;;;3568854;40;20045;-61
2021/06/26 00:56:23;;;;;;;8.57;6.40;;;;;;;;;;3567215;40;20063;-61
2021/06/26 00:58:49;;;;;;;9.17;6.80;;;;;;;;;;3565677;40;20034;-62
2021/06/26 01:01:14;;;;;;;16.07;8.23;;;;;;;;;;3563844;40;20396;-62
2021/06/26 01:03:39;;;;;;;9.77;6.80;;;;;;;;;;3562475;40;20419;-61
2021/06/26 01:06:04;;;;;;;9.30;6.83;;;;;;;;;;3561355;40;20311;-61
2021/06/26 01:08:29;;;;;;;9.77;6.95;;;;;;;;;;3561418;40;20262;-61
2021/06/26 01:10:55;;;;;;;13.23;7.27;;;;;;;;;;3562768;40;20059;-61
2021/06/26 01:13:20;;;;;;;25.47;8.67;;;;;;;;;;3564439;40;20029;-61
2021/06/26 01:15:45;;;;;;;20.67;8.17;;;;;;;;;;3565453;40;20029;-61
2021/06/26 01:18:10;;;;;;;10.97;7.63;;;;;;;;;;3567769;40;20099;-62
2021/06/26 01:20:36;;;;;;;15.97;8.10;;;;;;;;;;3568346;40;20049;-61
2021/06/26 01:23:01;;;;;;;8.68;6.40;;;;;;;;;;3570307;40;20040;-61
2021/06/26 01:25:26;;;;;;;19.60;9.90;;;;;;;;;;3559690;40;20033;-61
2021/06/26 01:27:51;;;;;;;14.20;7.10;;;;;;;;;;3566949;40;20029;-62
2021/06/26 01:30:16;;;;;;;12.63;7.93;;;;;;;;;;3564906;40;20089;-62
2021/06/26 01:32:42;;;;;;;23.00;10.20;;;;;;;;;;3565182;40;20530;-61
2021/06/26 01:35:07;;;;;;;59.20;14.40;;;;;;;;;;3563612;40;20367;-62
2021/06/26 01:37:32;;;;;;;39.23;11.70;;;;;;;;;;3562418;40;20034;-61
2021/06/26 01:39:57;;;;;;;27.40;12.80;;;;;;;;;;3561764;40;20029;-61
2021/06/26 01:42:22;;;;;;;52.33;14.40;;;;;;;;;;3562506;40;20033;-61
2021/06/26 01:44:48;;;;;;;44.23;13.17;;;;;;;;;;3562276;40;20338;-61
2021/06/26 01:47:13;;;;;;;49.10;13.70;;;;;;;;;;3566438;40;20033;-61
2021/06/26 01:49:38;;;;;;;40.30;14.67;;;;;;;;;;3564794;40;20497;-61
2021/06/26 01:52:03;;;;;;;40.67;13.30;;;;;;;;;;3563378;40;20044;-61
2021/06/26 01:54:28;;;;;;;25.07;12.23;;;;;;;;;;3571221;40;20048;-61
2021/06/26 01:56:54;;;;;;;30.55;12.20;;;;;;;;;;3561176;40;20906;-61
2021/06/26 01:59:19;;;;;;;27.53;11.83;;;;;;;;;;3564848;40;20026;-61
2021/06/26 02:01:44;;;;;;;17.00;9.47;;;;;;;;;;3562932;40;20092;-61
2021/06/26 02:04:09;;;;;;;16.73;9.20;;;;;;;;;;3566426;40;20487;-61
2021/06/26 02:06:34;;;;;;;37.87;12.90;;;;;;;;;;3565793;40;20835;-61
2021/06/26 02:09:00;;;;;;;22.33;11.33;;;;;;;;;;3567984;40;20308;-61
2021/06/26 02:11:25;;;;;;;47.17;13.97;;;;;;;;;;3572471;40;20051;-61
2021/06/26 02:13:50;;;;;;;33.97;14.07;;;;;;;;;;3562984;40;20430;-61
2021/06/26 02:16:15;;;;;;;18.07;10.40;;;;;;;;;;3569754;40;20324;-62
2021/06/26 02:18:40;;;;;;;26.10;11.97;;;;;;;;;;3565070;40;20133;-61
2021/06/26 02:21:06;;;;;;;29.02;13.00;;;;;;;;;;3565894;40;20041;-61
2021/06/26 02:23:31;;;;;;;23.17;11.77;;;;;;;;;;3564998;40;20416;-61
2021/06/26 02:25:56;;;;;;;13.97;9.23;;;;;;;;;;3568184;40;20029;-61
2021/06/26 02:28:22;;;;;;;17.70;10.60;;;;;;;;;;3568654;40;20037;-61
2021/06/26 02:30:47;;;;;;;21.17;11.70;;;;;;;;;;3564268;40;20907;-61
2021/06/26 02:33:12;;;;;;;25.57;12.20;;;;;;;;;;3567889;40;20075;-61
2021/06/26 02:35:37;;;;;;;14.17;9.23;;;;;;;;;;3566973;40;20033;-61
2021/06/26 02:38:02;;;;;;;14.30;9.77;;;;;;;;;;3569637;40;20021;-61
2021/06/26 02:40:27;;;;;;;16.73;9.67;;;;;;;;;;3568795;40;20033;-61
2021/06/26 02:42:53;;;;;;;15.43;10.73;;;;;;;;;;3570777;40;20036;-61
2021/06/26 02:45:18;;;;;;;14.33;9.23;;;;;;;;;;3560422;40;20888;-61
2021/06/26 02:47:43;;;;;;;14.93;9.63;;;;;;;;;;3565589;40;20055;-61
2021/06/26 02:50:09;;;;;;;12.47;8.83;;;;;;;;;;3567827;40;20336;-61
2021/06/26 02:52:34;;;;;;;15.57;8.60;;;;;;;;;;3568463;40;20031;-61
2021/06/26 02:54:59;;;;;;;14.73;9.27;;;;;;;;;;3568342;40;20041;-61
2021/06/26 02:57:24;;;;;;;15.43;9.80;;;;;;;;;;3564913;40;20038;-61
2021/06/26 02:59:49;;;;;;;15.47;10.57;;;;;;;;;;3564582;40;20711;-61
2021/06/26 03:02:15;;;;;;;12.97;9.10;;;;;;;;;;3559767;40;20396;-61
2021/06/26 03:04:40;;;;;;;15.57;10.10;;;;;;;;;;3558980;40;20057;-61
2021/06/26 03:07:05;;;;;;;14.43;9.10;;;;;;;;;;3561226;40;20037;-61
2021/06/26 03:09:30;;;;;;;11.03;8.30;;;;;;;;;;3563773;40;20288;-61
2021/06/26 03:11:55;;;;;;;12.63;8.77;;;;;;;;;;3562995;40;20041;-61
2021/06/26 03:14:21;;;;;;;12.77;8.57;;;;;;;;;;3564863;40;20543;-61
2021/06/26 03:16:46;;;;;;;11.73;8.57;;;;;;;;;;3563979;40;20676;-61
2021/06/26 03:19:11;;;;;;;14.68;9.27;;;;;;;;;;3559703;40;20025;-61
2021/06/26 03:21:36;;;;;;;13.10;8.90;;;;;;;;;;3565699;40;20040;-61
2021/06/26 03:24:01;;;;;;;15.13;8.80;;;;;;;;;;3562381;40;20276;-61
2021/06/26 03:26:27;;;;;;;12.87;8.00;;;;;;;;;;3565775;40;20064;-61
2021/06/26 03:28:52;;;;;;;14.87;8.33;;;;;;;;;;3565683;40;20126;-61
2021/06/26 03:31:17;;;;;;;14.50;9.77;;;;;;;;;;3571763;40;20519;-62
2021/06/26 03:33:42;;;;;;;14.87;9.57;;;;;;;;;;3568362;40;20063;-61
2021/06/26 03:36:08;;;;;;;14.27;9.80;;;;;;;;;;3570062;40;20262;-61
2021/06/26 03:38:33;;;;;;;13.95;9.48;;;;;;;;;;3568367;40;20033;-61
2021/06/26 03:40:58;;;;;;;14.00;9.63;;;;;;;;;;3563259;40;20029;-61
2021/06/26 03:43:24;;;;;;;14.77;10.17;;;;;;;;;;3564185;40;20039;-61
2021/06/26 03:45:49;;;;;;;13.63;9.73;;;;;;;;;;3570563;40;20040;-61
2021/06/26 03:48:14;;;;;;;15.27;9.13;;;;;;;;;;3567117;40;20921;-61
2021/06/26 03:50:41;;;;;;;13.63;9.00;;;;;;;;;;3563521;40;20056;-61
2021/06/26 03:53:06;;;;;;;13.90;8.65;;;;;;;;;;3560584;40;20283;-63
2021/06/26 03:55:31;;;;;;;11.35;8.13;;;;;;;;;;3563181;40;20332;-61
2021/06/26 03:57:56;;;;;;;11.43;8.35;;;;;;;;;;3566762;40;20026;-62
2021/06/26 04:00:22;;;;;;;11.40;8.25;;;;;;;;;;3563289;40;20037;-62
2021/06/26 04:02:47;;;;;;;11.37;8.67;;;;;;;;;;3563733;40;20022;-61
2021/06/26 04:05:12;;;;;;;12.60;8.65;;;;;;;;;;3567248;40;20051;-61
2021/06/26 04:07:37;;;;;;;14.87;9.20;;;;;;;;;;3569354;40;20298;-61
2021/06/26 04:10:03;;;;;;;14.90;9.20;;;;;;;;;;3569672;40;20613;-62
2021/06/26 04:12:28;;;;;;;45.15;13.60;;;;;;;;;;3567880;40;20035;-62
2021/06/26 04:14:53;;;;;;;52.23;13.90;;;;;;;;;;3567775;40;20047;-61
2021/06/26 04:17:18;;;;;;;36.30;11.45;;;;;;;;;;3565647;40;20059;-61
2021/06/26 04:19:44;;;;;;;11.13;8.13;;;;;;;;;;3564369;40;20031;-62
2021/06/26 04:22:09;;;;;;;12.60;7.40;;;;;;;;;;3567513;40;20248;-62
2021/06/26 04:24:34;;;;;;;11.10;8.20;;;;;;;;;;3561884;40;20036;-61
2021/06/26 04:26:59;;;;;;;16.23;8.37;;;;;;;;;;3573357;40;20071;-61
2021/06/26 04:29:24;;;;;;;10.63;7.55;;;;;;;;;;3567753;40;20259;-61
2021/06/26 04:31:50;;;;;;;10.40;8.03;;;;;;;;;;3568158;40;20036;-61
2021/06/26 04:34:15;;;;;;;11.47;8.00;;;;;;;;;;3566747;40;20365;-62
2021/06/26 04:36:41;;;;;;;15.90;8.43;;;;;;;;;;3566122;40;20279;-61
2021/06/26 04:39:07;;;;;;;12.38;7.90;;;;;;;;;;3567939;40;20352;-62
2021/06/26 04:41:32;;;;;;;9.88;7.55;;;;;;;;;;3568508;40;20357;-61
2021/06/26 04:43:58;;;;;;;10.60;7.90;;;;;;;;;;3570414;40;20025;-61
2021/06/26 04:46:23;;;;;;;11.97;8.67;;;;;;;;;;3568577;40;20384;-62
2021/06/26 04:48:48;;;;;;;13.67;8.50;;;;;;;;;;3567556;40;20385;-62
2021/06/26 04:51:13;;;;;;;10.10;7.80;;;;;;;;;;3565454;40;20150;-62
2021/06/26 04:53:38;;;;;;;11.63;8.57;;;;;;;;;;3564402;40;20319;-62
2021/06/26 04:56:04;;;;;;;10.37;8.40;;;;;;;;;;3569496;40;20259;-62
2021/06/26 04:58:29;;;;;;;11.50;8.30;;;;;;;;;;3566414;40;20044;-61
2021/06/26 05:00:57;;;;;;;15.27;8.63;;;;;;;;;;3563840;40;20020;-61
2021/06/26 05:03:22;;;;;;;11.45;8.07;;;;;;;;;;3560826;40;20287;-61
2021/06/26 05:05:48;;;;;;;14.98;8.82;;;;;;;;;;3568732;40;20052;-62
2021/06/26 05:08:13;;;;;;;15.43;9.43;;;;;;;;;;3564950;40;20037;-62
2021/06/26 05:10:38;;;;;;;9.23;7.53;;;;;;;;;;3564589;40;20377;-61
2021/06/26 05:13:03;;;;;;;13.77;8.87;;;;;;;;;;3566644;40;20284;-62
2021/06/26 05:15:28;;;;;;;13.90;8.87;;;;;;;;;;3568752;40;20033;-62
2021/06/26 05:17:54;;;;;;;14.30;9.27;;;;;;;;;;3569108;40;20494;-62
2021/06/26 05:20:19;;;;;;;14.87;8.83;;;;;;;;;;3567709;40;20141;-62
2021/06/26 05:22:44;;;;;;;16.30;9.93;;;;;;;;;;3565176;40;20041;-62
2021/06/26 05:25:09;;;;;;;15.97;9.47;;;;;;;;;;3564888;40;20044;-62
2021/06/26 05:27:34;;;;;;;13.07;9.07;;;;;;;;;;3562689;40;20609;-62
2021/06/26 05:30:00;;;;;;;13.80;9.77;;;;;;;;;;3562823;40;20030;-61
2021/06/26 05:32:25;;;;;;;12.75;9.85;;;;;;;;;;3573036;40;20299;-61
2021/06/26 05:34:50;;;;;;;12.45;9.07;;;;;;;;;;3565336;40;20038;-62
2021/06/26 05:37:16;;;;;;;12.57;8.93;;;;;;;;;;3567199;40;20041;-61
2021/06/26 05:39:41;;;;;;;13.15;9.50;;;;;;;;;;3567074;40;20421;-61
2021/06/26 05:42:06;;;;;;;16.90;9.27;;;;;;;;;;3568021;40;20041;-62
2021/06/26 05:44:31;;;;;;;15.53;10.53;;;;;;;;;;3568513;40;20029;-62
2021/06/26 05:46:56;;;;;;;13.53;9.77;;;;;;;;;;3565605;40;20021;-62
2021/06/26 05:49:22;;;;;;;13.43;9.33;;;;;;;;;;3568601;40;20033;-61
2021/06/26 05:51:47;;;;;;;12.70;9.23;;;;;;;;;;3568477;40;20115;-62
2021/06/26 05:54:12;;;;;;;12.73;8.57;;;;;;;;;;3570902;40;20278;-61
2021/06/26 05:56:37;;;;;;;14.80;10.30;;;;;;;;;;3565033;40;20385;-62
2021/06/26 05:59:02;;;;;;;13.90;8.63;;;;;;;;;;3565990;40;20037;-62
2021/06/26 06:01:28;;;;;;;12.10;8.47;;;;;;;;;;3564641;40;20265;-62
2021/06/26 06:03:53;;;;;;;13.63;8.33;;;;;;;;;;3563078;40;20032;-62
2021/06/26 06:06:18;;;;;;;10.40;7.13;;;;;;;;;;3569238;40;20271;-62
2021/06/26 06:08:43;;;;;;;11.67;7.57;;;;;;;;;;3568322;40;20040;-62
2021/06/26 06:11:09;;;;;;;11.60;7.70;;;;;;;;;;3567954;40;20029;-62
2021/06/26 06:13:34;;;;;;;12.80;8.10;;;;;;;;;;3567226;40;20749;-62
2021/06/26 06:15:59;;;;;;;11.07;7.07;;;;;;;;;;3568160;40;20032;-62
2021/06/26 06:18:24;;;;;;;16.20;9.27;;;;;;;;;;3568264;40;20287;-62
2021/06/26 06:20:50;;;;;;;13.45;7.82;;;;;;;;;;3569280;40;20025;-62
2021/06/26 06:23:15;;;;;;;14.53;7.87;;;;;;;;;;3572786;40;20044;-61
2021/06/26 06:25:40;;;;;;;10.60;7.33;;;;;;;;;;3565354;40;20818;-62
2021/06/26 06:28:05;;;;;;;10.47;6.90;;;;;;;;;;3569271;40;20254;-62
2021/06/26 06:30:31;;;;;;;32.50;9.98;;;;;;;;;;3565455;40;20033;-61
2021/06/26 06:32:56;;;;;;;9.07;6.38;;;;;;;;;;3565517;40;20040;-62
2021/06/26 06:35:21;;;;;;;9.63;6.80;;;;;;;;;;3566587;40;20030;-62
2021/06/26 06:37:47;;;;;;;9.20;6.67;;;;;;;;;;3565395;40;20572;-62
2021/06/26 06:40:12;;;;;;;9.23;6.00;;;;;;;;;;3569229;40;20307;-62
2021/06/26 06:42:37;;;;;;;9.83;6.10;;;;;;;;;;3569231;40;20402;-62
2021/06/26 06:45:02;;;;;;;7.50;5.73;;;;;;;;;;3567147;40;20255;-62
2021/06/26 06:47:28;;;;;;;8.73;6.45;;;;;;;;;;3565133;40;20029;-62
2021/06/26 06:49:53;;;;;;;9.30;5.80;;;;;;;;;;3564154;40;20041;-62
2021/06/26 06:52:19;;;;;;;8.47;6.20;;;;;;;;;;3561004;40;20045;-62
2021/06/26 06:54:44;;;;;;;7.83;5.20;;;;;;;;;;3564052;40;20669;-62
2021/06/26 06:57:09;;;;;;;7.10;5.33;;;;;;;;;;3563085;40;20029;-62
2021/06/26 06:59:34;;;;;;;8.10;5.43;;;;;;;;;;3566829;40;20260;-62
2021/06/26 07:02:00;;;;;;;9.85;5.22;;;;;;;;;;3567871;40;20279;-62
2021/06/26 07:04:25;;;;;;;9.70;5.67;;;;;;;;;;3567070;40;20027;-62
2021/06/26 07:06:50;;;;;;;9.13;4.67;;;;;;;;;;3568134;40;20064;-62
2021/06/26 07:09:15;;;;;;;7.87;5.17;;;;;;;;;;3561288;40;20042;-62
2021/06/26 07:11:40;;;;;;;8.80;4.70;;;;;;;;;;3562062;40;20039;-62
2021/06/26 07:14:06;;;;;;;9.17;5.07;;;;;;;;;;3567572;40;20021;-62
2021/06/26 07:16:31;;;;;;;8.27;4.63;;;;;;;;;;3561867;40;20369;-62
2021/06/26 07:18:56;;;;;;;6.37;4.77;;;;;;;;;;3565143;40;20032;-62
2021/06/26 07:21:21;;;;;;;9.57;4.87;;;;;;;;;;3568405;40;20065;-62
2021/06/26 07:23:46;;;;;;;8.70;3.90;;;;;;;;;;3564814;40;20037;-62
2021/06/26 07:26:12;;;;;;;9.97;4.30;;;;;;;;;;3559077;40;20030;-64
2021/06/26 07:28:37;;;;;;;5.53;4.27;;;;;;;;;;3569364;40;20705;-64
2021/06/26 07:31:02;;;;;;;10.37;5.00;;;;;;;;;;3567968;40;20041;-64
2021/06/26 07:33:27;;;;;;;6.90;4.63;;;;;;;;;;3566977;40;20033;-64
2021/06/26 07:35:52;;;;;;;11.17;4.53;;;;;;;;;;3564900;40;20138;-65
2021/06/26 07:38:18;;;;;;;12.20;5.50;;;;;;;;;;3562487;40;20038;-64
2021/06/26 07:40:43;;;;;;;10.43;5.90;;;;;;;;;;3560426;40;20715;-64
2021/06/26 07:43:08;;;;;;;6.37;4.13;;;;;;;;;;3563319;40;20628;-64
2021/06/26 07:45:33;;;;;;;6.17;4.50;;;;;;;;;;3567495;40;20744;-64
2021/06/26 07:47:58;;;;;;;8.03;5.20;;;;;;;;;;3565837;40;20272;-64
2021/06/26 07:50:24;;;;;;;7.33;4.27;;;;;;;;;;3566379;40;20774;-64
2021/06/26 07:52:49;;;;;;;7.23;4.60;;;;;;;;;;3569726;40;20539;-64
2021/06/26 07:55:14;;;;;;;7.30;4.77;;;;;;;;;;3564318;40;20264;-65
2021/06/26 07:57:39;;;;;;;8.40;4.87;;;;;;;;;;3566690;40;20017;-64
2021/06/26 08:00:05;;;;;;;12.70;4.35;;;;;;;;;;3567263;40;20033;-64
2021/06/26 08:02:30;;;;;;;7.70;4.50;;;;;;;;;;3570514;40;20037;-63
2021/06/26 08:04:55;;;;;;;5.60;4.40;;;;;;;;;;3564201;40;20260;-64
2021/06/26 08:07:20;;;;;;;5.60;4.70;;;;;;;;;;3562266;40;20143;-63
2021/06/26 08:09:45;;;;;;;8.77;4.60;;;;;;;;;;3563594;40;20866;-62
2021/06/26 08:12:14;;;;;;;5.27;3.73;;;;;;;;;;3554712;40;20771;-62
2021/06/26 08:14:39;;;;;;;5.65;4.63;;;;;;;;;;3562179;40;20033;-62
2021/06/26 08:17:05;;;;;;;7.80;4.57;;;;;;;;;;3568332;40;20036;-62
2021/06/26 08:19:30;;;;;;;25.87;15.27;;;;;;;;;;3569007;40;20021;-62
2021/06/26 08:21:55;;;;;;;13.17;8.13;;;;;;;;;;3566673;40;20846;-63
2021/06/26 08:24:22;;;;;;;9.00;4.00;;;;;;;;;;3570216;40;20032;-61
2021/06/26 08:26:48;;;;;;;7.15;3.95;;;;;;;;;;3568897;40;20037;-62
2021/06/26 08:29:13;;;;;;;6.37;3.50;;;;;;;;;;3569411;40;20049;-62
2021/06/26 08:31:38;;;;;;;13.23;4.40;;;;;;;;;;3567868;40;20134;-62
2021/06/26 08:34:03;;;;;;;7.33;5.33;;;;;;;;;;3566226;40;20580;-62
2021/06/26 08:36:28;;;;;;;7.33;4.90;;;;;;;;;;3568846;40;20039;-62
2021/06/26 08:38:54;;;;;;;7.00;4.70;;;;;;;;;;3564151;40;20036;-63
2021/06/26 08:41:19;;;;;;;11.20;4.87;;;;;;;;;;3562595;40;20454;-62
2021/06/26 08:43:44;;;;;;;9.15;5.20;;;;;;;;;;3566158;40;20030;-62
2021/06/26 08:46:09;;;;;;;7.13;4.20;;;;;;;;;;3566276;40;20682;-62
2021/06/26 08:48:35;;;;;;;6.33;4.33;;;;;;;;;;3570181;40;20024;-62
2021/06/26 08:51:00;;;;;;;9.07;4.23;;;;;;;;;;3559697;40;20263;-62
2021/06/26 08:53:25;;;;;;;9.10;4.97;;;;;;;;;;3560812;40;20272;-62
2021/06/26 08:55:53;;;;;;;8.10;5.00;;;;;;;;;;3565487;40;20791;-62
2021/06/26 08:58:18;;;;;;;15.02;5.75;;;;;;;;;;3567111;40;20044;-62
2021/06/26 09:00:43;;;;;;;7.93;4.50;;;;;;;;;;3565320;40;20069;-62
2021/06/26 09:03:08;;;;;;;5.97;4.17;;;;;;;;;;3566622;40;20147;-62
2021/06/26 09:05:34;;;;;;;5.05;3.88;;;;;;;;;;3566878;40;20656;-62
2021/06/26 09:07:59;;;;;;;9.23;4.37;;;;;;;;;;3561010;40;20064;-62
2021/06/26 09:10:25;;;;;;;5.30;3.57;;;;;;;;;;3561702;40;20394;-62
2021/06/26 09:12:50;;;;;;;5.97;3.42;;;;;;;;;;3565596;40;20045;-61
2021/06/26 09:15:16;;;;;;;5.43;3.23;;;;;;;;;;3564965;40;20478;-62
2021/06/26 09:17:41;;;;;;;5.33;3.93;;;;;;;;;;3565867;40;20029;-62
2021/06/26 09:20:09;;;;;;;6.57;3.70;;;;;;;;;;3561916;40;20029;-62
2021/06/26 09:22:34;;;;;;;6.40;4.13;;;;;;;;;;3559435;40;20041;-62
2021/06/26 09:24:59;;;;;;;8.87;5.20;;;;;;;;;;3559317;40;20377;-62
2021/06/26 09:27:24;;;;;;;6.60;3.28;;;;;;;;;;3565192;40;20046;-62
2021/06/26 09:29:50;;;;;;;5.93;3.10;;;;;;;;;;3564258;40;20484;-62
2021/06/26 09:32:15;;;;;;;7.43;3.13;;;;;;;;;;3563852;40;20640;-61
2021/06/26 09:34:40;;;;;;;12.07;3.80;;;;;;;;;;3566256;40;20037;-62
2021/06/26 09:37:05;;;;;;;4.13;2.70;;;;;;;;;;3565474;40;20033;-62
2021/06/26 09:39:31;;;;;;;4.47;2.70;;;;;;;;;;3569277;40;20255;-62
2021/06/26 09:41:56;;;;;;;4.37;3.30;;;;;;;;;;3563546;40;20501;-62
2021/06/26 09:44:21;;;;;;;5.53;3.30;;;;;;;;;;3562534;40;20033;-62
2021/06/26 09:46:46;;;;;;;3.07;2.77;;;;;;;;;;3566323;40;20059;-63
2021/06/26 09:49:11;;;;;;;6.80;3.40;;;;;;;;;;3565529;40;20126;-63
2021/06/26 09:51:37;;;;;;;6.27;3.33;;;;;;;;;;3568240;40;20036;-63
2021/06/26 09:54:02;;;;;;;9.07;3.70;;;;;;;;;;3566994;40;20034;-63
2021/06/26 09:56:27;;;;;;;6.80;4.00;;;;;;;;;;3563955;40;20037;-63
2021/06/26 09:58:52;;;;;;;14.60;3.80;;;;;;;;;;3568110;40;20024;-64
2021/06/26 10:01:17;;;;;;;3.60;2.70;;;;;;;;;;3567613;40;20037;-64
2021/06/26 10:03:43;;;;;;;8.67;4.93;;;;;;;;;;3565372;40;20189;-64
2021/06/26 10:06:08;;;;;;;8.80;3.87;;;;;;;;;;3566997;40;20035;-64
2021/06/26 10:08:33;;;;;;;4.83;3.33;;;;;;;;;;3569059;40;20040;-64
2021/06/26 10:10:59;;;;;;;7.23;3.73;;;;;;;;;;3569576;40;20999;-64
2021/06/26 10:13:24;;;;;;;5.03;2.88;;;;;;;;;;3563931;40;20125;-64
2021/06/26 10:15:49;;;;;;;4.77;2.87;;;;;;;;;;3569844;40;20299;-64
2021/06/26 10:18:14;;;;;;;7.07;3.97;;;;;;;;;;3571280;40;20032;-65
2021/06/26 10:20:40;;;;;;;9.10;3.20;;;;;;;;;;3568970;40;20027;-64
2021/06/26 10:23:05;;;;;;;4.33;2.20;;;;;;;;;;3565783;40;20051;-64
2021/06/26 10:25:30;;;;;;;4.07;2.40;;;;;;;;;;3565737;40;20357;-62
2021/06/26 10:27:55;;;;;;;3.27;2.40;;;;;;;;;;3568501;40;20036;-61
2021/06/26 10:30:21;;;;;;;6.80;2.57;;;;;;;;;;3569262;40;20485;-62
2021/06/26 10:32:46;;;;;;;8.23;2.33;;;;;;;;;;3567337;40;20444;-62
2021/06/26 10:35:12;;;;;;;2.10;1.90;;;;;;;;;;3568260;40;20630;-62
2021/06/26 10:37:37;;;;;;;4.57;2.50;;;;;;;;;;3564785;40;20422;-61
2021/06/26 10:40:02;;;;;;;5.40;3.23;;;;;;;;;;3566911;40;20032;-62
2021/06/26 10:42:27;;;;;;;5.20;2.93;;;;;;;;;;3568651;40;20882;-62
2021/06/26 10:44:53;;;;;;;3.03;2.50;;;;;;;;;;3568785;40;20029;-62
2021/06/26 10:47:18;;;;;;;4.93;2.17;;;;;;;;;;3569403;40;20033;-61
2021/06/26 10:49:43;;;;;;;9.18;2.40;;;;;;;;;;3567047;40;20041;-62
2021/06/26 10:52:09;;;;;;;4.17;1.90;;;;;;;;;;3558685;40;20033;-62
2021/06/26 10:54:35;;;;;;;2.63;1.90;;;;;;;;;;3565864;40;20638;-62
2021/06/26 10:57:01;;;;;;;3.60;1.80;;;;;;;;;;3566116;40;20394;-62
2021/06/26 10:59:26;;;;;;;3.93;2.10;;;;;;;;;;3566182;40;20087;-62
2021/06/26 11:01:52;;;;;;;3.30;2.10;;;;;;;;;;3560429;40;20489;-62
2021/06/26 11:04:17;;;;;;;2.87;2.07;;;;;;;;;;3561912;40;20447;-61
2021/06/26 11:06:42;;;;;;;4.50;1.80;;;;;;;;;;3563119;40;20061;-61
2021/06/26 11:09:07;;;;;;;2.67;2.17;;;;;;;;;;3563950;40;20044;-61
2021/06/26 11:11:33;;;;;;;4.70;2.20;;;;;;;;;;3564138;40;20030;-61
2021/06/26 11:13:58;;;;;;;2.63;2.17;;;;;;;;;;3561353;40;20295;-61
2021/06/26 11:16:23;;;;;;;3.77;2.43;;;;;;;;;;3561101;40;20033;-61
2021/06/26 11:18:48;;;;;;;3.53;2.57;;;;;;;;;;3560865;40;20700;-62
2021/06/26 11:21:13;;;;;;;8.30;3.90;;;;;;;;;;3560462;40;20180;-61
2021/06/26 11:23:39;;;;;;;6.97;3.10;;;;;;;;;;3563491;40;20033;-61
2021/06/26 11:26:04;;;;;;;6.40;3.63;;;;;;;;;;3564117;40;20665;-61
2021/06/26 11:28:29;;;;;;;14.87;5.63;;;;;;;;;;3565129;40;20026;-61
2021/06/26 11:30:54;;;;;;;22.73;6.80;;;;;;;;;;3561552;40;20700;-61
2021/06/26 11:33:22;;;;;;;9.23;3.03;;;;;;;;;;3562610;40;20036;-61
2021/06/26 11:35:47;;;;;;;7.07;3.83;;;;;;;;;;3568486;40;20025;-62
2021/06/26 11:38:12;;;;;;;8.77;4.17;;;;;;;;;;3568170;40;20036;-62
2021/06/26 11:40:37;;;;;;;2.47;2.00;;;;;;;;;;3566136;40;20688;-62
2021/06/26 11:43:03;;;;;;;8.07;3.53;;;;;;;;;;3565278;40;20034;-62
2021/06/26 11:45:28;;;;;;;11.35;4.68;;;;;;;;;;3561442;40;20049;-62
2021/06/26 11:47:53;;;;;;;16.13;5.73;;;;;;;;;;3562708;40;20018;-61
2021/06/26 11:50:18;;;;;;;17.43;6.20;;;;;;;;;;3561629;40;20045;-61
2021/06/26 11:52:44;;;;;;;15.23;5.30;;;;;;;;;;3560840;40;20821;-62
2021/06/26 11:55:09;;;;;;;25.37;5.83;;;;;;;;;;3562029;40;20606;-62
2021/06/26 11:57:34;;;;;;;39.77;7.77;;;;;;;;;;3563535;40;20059;-61
2021/06/26 11:59:59;;;;;;;24.70;6.63;;;;;;;;;;3567947;40;20044;-62
2021/06/26 12:02:25;;;;;;;31.17;8.20;;;;;;;;;;3567391;40;20310;-62
2021/06/26 12:04:50;;;;;;;7.50;3.63;;;;;;;;;;3565307;40;20021;-62
2021/06/26 12:07:15;;;;;;;27.50;6.20;;;;;;;;;;3561205;40;20277;-62
2021/06/26 12:09:40;;;;;;;16.93;5.60;;;;;;;;;;3563963;40;20026;-62
2021/06/26 12:12:06;;;;;;;42.23;11.40;;;;;;;;;;3563111;40;20037;-61
2021/06/26 12:14:31;;;;;;;3.87;2.67;;;;;;;;;;3564211;40;20123;-62
2021/06/26 12:16:56;;;;;;;22.33;6.50;;;;;;;;;;3564659;40;20036;-61
2021/06/26 12:19:21;;;;;;;33.00;6.87;;;;;;;;;;3565504;40;20102;-62
2021/06/26 12:21:47;;;;;;;45.53;15.77;;;;;;;;;;3564224;40;20754;-61
2021/06/26 12:24:12;;;;;;;3.90;1.67;;;;;;;;;;3561357;40;20026;-61
2021/06/26 12:26:37;;;;;;;2.33;1.87;;;;;;;;;;3560712;40;20029;-61
2021/06/26 12:29:02;;;;;;;3.87;2.00;;;;;;;;;;3566075;40;20808;-61
2021/06/26 12:31:28;;;;;;;3.23;2.00;;;;;;;;;;3564971;40;20288;-61
2021/06/26 12:33:53;;;;;;;19.77;4.73;;;;;;;;;;3563831;40;20033;-62
2021/06/26 12:36:18;;;;;;;29.87;6.43;;;;;;;;;;3566060;40;20111;-61
2021/06/26 12:38:43;;;;;;;6.23;2.40;;;;;;;;;;3567133;40;20043;-62
2021/06/26 12:41:08;;;;;;;1.87;1.30;;;;;;;;;;3563345;40;20036;-62
2021/06/26 12:43:34;;;;;;;1.90;1.53;;;;;;;;;;3562209;40;20045;-62
2021/06/26 12:45:59;;;;;;;1.73;1.33;;;;;;;;;;3561140;40;20032;-62
2021/06/26 12:48:29;;;;;;;2.20;1.50;;;;;;;;;;3563382;40;20267;-62
2021/06/26 12:51:05;;;;;;;1.45;1.35;;;;;;;;;;3564105;40;20037;-62
2021/06/26 12:53:30;;;;;;;1.38;1.20;;;;;;;;;;3564656;40;20685;-62
2021/06/26 12:55:55;;;;;;;1.47;1.30;;;;;;;;;;3563966;40;20142;-62
2021/06/26 12:58:23;;;;;;;1.90;1.40;;;;;;;;;;3558882;40;20037;-62
2021/06/26 13:00:48;;;;;;;6.07;4.40;;;;;;;;;;3559650;40;20026;-62
2021/06/26 13:03:14;;;;;;;5.50;2.47;;;;;;;;;;3561084;40;20041;-63
2021/06/26 13:05:39;;;;;;;5.93;2.30;;;;;;;;;;3563244;40;20685;-62
2021/06/26 13:08:04;;;;;;;1.57;1.23;;;;;;;;;;3563651;40;20036;-62
2021/06/26 13:10:29;;;;;;;2.37;1.40;;;;;;;;;;3566126;40;20025;-63
2021/06/26 13:12:54;;;;;;;2.63;1.27;;;;;;;;;;3563703;40;20025;-63
2021/06/26 13:15:20;;;;;;;17.97;4.27;;;;;;;;;;3566691;40;20492;-62
2021/06/26 13:17:45;;;;;;;12.97;3.20;;;;;;;;;;3565317;40;20029;-62
2021/06/26 13:20:10;;;;;;;6.33;1.60;;;;;;;;;;3567325;40;20055;-62
2021/06/26 13:22:35;;;;;;;37.13;5.63;;;;;;;;;;3567973;40;20997;-62
2021/06/26 13:25:01;;;;;;;1.60;1.20;;;;;;;;;;3565675;40;20677;-62
2021/06/26 13:27:26;;;;;;;2.67;1.73;;;;;;;;;;3565643;40;20025;-62
2021/06/26 13:29:52;;;;;;;1.80;1.50;;;;;;;;;;3567234;40;20033;-63
2021/06/26 13:32:18;;;;;;;4.25;1.90;;;;;;;;;;3568789;40;20415;-62
2021/06/26 13:34:43;;;;;;;2.42;1.67;;;;;;;;;;3569336;40;20030;-62
2021/06/26 13:37:09;;;;;;;19.97;5.50;;;;;;;;;;3568137;40;20029;-62
2021/06/26 13:39:34;;;;;;;21.03;6.40;;;;;;;;;;3566594;40;20029;-62
2021/06/26 13:42:00;;;;;;;23.33;7.53;;;;;;;;;;3564236;40;20875;-63
2021/06/26 13:44:26;;;;;;;4.35;3.03;;;;;;;;;;3566422;40;20026;-63
2021/06/26 13:46:51;;;;;;;1.73;1.27;;;;;;;;;;3565406;40;20025;-63
2021/06/26 13:49:16;;;;;;;9.27;3.40;;;;;;;;;;3561173;40;20775;-63
2021/06/26 13:51:42;;;;;;;3.83;1.60;;;;;;;;;;3561514;40;20025;-62
2021/06/26 13:54:07;;;;;;;3.67;1.60;;;;;;;;;;3564623;40;21255;-63
2021/06/26 13:56:32;;;;;;;3.33;1.47;;;;;;;;;;3564304;40;20032;-62
2021/06/26 13:58:57;;;;;;;3.23;1.97;;;;;;;;;;3564625;40;20032;-62
2021/06/26 14:01:22;;;;;;;4.97;1.83;;;;;;;;;;3560607;40;20030;-62
2021/06/26 14:03:48;;;;;;;2.27;1.47;;;;;;;;;;3560203;40;20516;-63
2021/06/26 14:06:18;;;;;;;2.60;2.10;;;;;;;;;;3566267;40;20298;-63
2021/06/26 14:08:43;;;;;;;3.33;1.73;;;;;;;;;;3560450;40;20089;-63
2021/06/26 14:11:09;;;;;;;5.50;2.00;;;;;;;;;;3561019;40;20029;-62
2021/06/26 14:13:34;;;;;;;2.07;1.80;;;;;;;;;;3563703;40;20040;-63
2021/06/26 14:15:59;;;;;;;3.67;1.40;;;;;;;;;;3565779;40;20476;-63
2021/06/26 14:18:24;;;;;;;2.30;1.57;;;;;;;;;;3568054;40;20042;-62
2021/06/26 14:20:50;;;;;;;1.70;1.40;;;;;;;;;;3559739;40;20028;-62
2021/06/26 14:23:15;;;;;;;4.97;1.90;;;;;;;;;;3568874;40;20272;-63